Weather at Lake Muskoka South Seaplane Base

Public forecast

Using degrees Celsius for public forecast. Weather courtesy of forecast.io.

Closest aviation weather report (METAR) to Lake Muskoka South Seaplane Base

Closest report is Muskoka Airport, 5.4 nm (10.0 km) E. Retrieved 2020/10/22 05:00 UTC (28 minutes ago):

CYQA 220500Z AUTO 19005KT 9SM OVC120 05/05 A3021 RMK SLP239

Closest aviation forecast (TAF) to Lake Muskoka South Seaplane Base

Forecast is more than 6 hours old.

Closest forecast is Muskoka Airport, 5.4 nm (10.0 km) E. Retrieved 2020/10/21 20:00 UTC (9 hours ago):

TAF CYQA 211938Z 2120/2202 26010G20KT P6SM BKN015 OVC030 TEMPO 2120/2123 SCT015 BKN030 BECMG 2200/2202 23005KT RMK FCST BASED ON AUTO OBS NXT FCST WILL BE ISSUED AT 221145Z